sensor_id;sensor_type;location;lat;lon;timestamp;pressure;altitude;pressure_sealevel;temperature;humidity
40794;BME280;26502;51.886;15.604;2023-09-19T00:04:21;99914.05;;;18.58;73.74
40794;BME280;26502;51.886;15.604;2023-09-19T00:09:33;99914.66;;;18.55;73.63
40794;BME280;26502;51.886;15.604;2023-09-19T00:14:40;99924.80;;;18.39;73.38
40794;BME280;26502;51.886;15.604;2023-09-19T00:19:46;99917.20;;;18.31;73.82
40794;BME280;26502;51.886;15.604;2023-09-19T00:24:56;99915.12;;;18.30;73.96
40794;BME280;26502;51.886;15.604;2023-09-19T00:30:02;99911.23;;;18.34;74.04
40794;BME280;26502;51.886;15.604;2023-09-19T00:35:10;99921.36;;;18.35;73.66
40794;BME280;26502;51.886;15.604;2023-09-19T00:40:16;99922.90;;;18.24;73.65
40794;BME280;26502;51.886;15.604;2023-09-19T00:45:23;99922.36;;;18.25;73.75
40794;BME280;26502;51.886;15.604;2023-09-19T00:50:29;99923.51;;;18.14;74.02
40794;BME280;26502;51.886;15.604;2023-09-19T00:55:37;99919.38;;;18.07;74.11
40794;BME280;26502;51.886;15.604;2023-09-19T01:00:44;99908.65;;;18.06;74.15
40794;BME280;26502;51.886;15.604;2023-09-19T01:05:50;99897.51;;;18.15;74.15
40794;BME280;26502;51.886;15.604;2023-09-19T01:11:01;99886.70;;;18.16;74.03
40794;BME280;26502;51.886;15.604;2023-09-19T01:16:15;99881.92;;;18.22;73.81
40794;BME280;26502;51.886;15.604;2023-09-19T01:21:30;99883.05;;;18.17;73.57
40794;BME280;26502;51.886;15.604;2023-09-19T01:27:06;99890.27;;;17.97;73.61
40794;BME280;26502;51.886;15.604;2023-09-19T01:32:17;99889.63;;;17.79;73.87
40794;BME280;26502;51.886;15.604;2023-09-19T01:37:26;99896.18;;;17.88;73.92
40794;BME280;26502;51.886;15.604;2023-09-19T01:42:37;99887.98;;;17.92;73.85
40794;BME280;26502;51.886;15.604;2023-09-19T01:47:51;99887.24;;;17.99;73.64
40794;BME280;26502;51.886;15.604;2023-09-19T01:53:02;99886.83;;;17.98;73.74
40794;BME280;26502;51.886;15.604;2023-09-19T01:58:14;99884.59;;;17.84;73.44
40794;BME280;26502;51.886;15.604;2023-09-19T02:03:22;99886.62;;;17.74;73.53
40794;BME280;26502;51.886;15.604;2023-09-19T02:08:29;99877.58;;;17.75;73.54
40794;BME280;26502;51.886;15.604;2023-09-19T02:13:38;99884.45;;;17.74;73.56
40794;BME280;26502;51.886;15.604;2023-09-19T02:18:45;99879.76;;;17.58;73.62
40794;BME280;26502;51.886;15.604;2023-09-19T02:23:52;99872.39;;;17.57;73.77
40794;BME280;26502;51.886;15.604;2023-09-19T02:28:57;99868.58;;;17.53;73.52
40794;BME280;26502;51.886;15.604;2023-09-19T02:34:04;99878.23;;;17.27;73.63
40794;BME280;26502;51.886;15.604;2023-09-19T02:39:13;99885.23;;;17.17;73.88
40794;BME280;26502;51.886;15.604;2023-09-19T02:44:20;99880.84;;;17.23;74.20
40794;BME280;26502;51.886;15.604;2023-09-19T02:49:26;99879.83;;;17.22;74.02
40794;BME280;26502;51.886;15.604;2023-09-19T02:54:32;99878.42;;;17.32;74.23
40794;BME280;26502;51.886;15.604;2023-09-19T02:59:38;99889.45;;;17.21;73.94
40794;BME280;26502;51.886;15.604;2023-09-19T03:04:47;99890.96;;;17.07;74.28
40794;BME280;26502;51.886;15.604;2023-09-19T03:09:54;99900.80;;;16.92;74.60
40794;BME280;26502;51.886;15.604;2023-09-19T03:15:00;99895.53;;;17.01;74.87
40794;BME280;26502;51.886;15.604;2023-09-19T03:20:08;99888.70;;;17.11;74.83
40794;BME280;26502;51.886;15.604;2023-09-19T03:25:17;99896.20;;;16.99;74.75
40794;BME280;26502;51.886;15.604;2023-09-19T03:30:26;99890.78;;;16.87;74.94
40794;BME280;26502;51.886;15.604;2023-09-19T03:35:32;99889.48;;;16.79;75.24
40794;BME280;26502;51.886;15.604;2023-09-19T03:40:39;99891.75;;;16.75;75.16
40794;BME280;26502;51.886;15.604;2023-09-19T03:45:46;99897.21;;;16.67;75.32
40794;BME280;26502;51.886;15.604;2023-09-19T03:50:52;99889.85;;;16.72;75.73
40794;BME280;26502;51.886;15.604;2023-09-19T03:56:01;99888.82;;;16.79;75.70
40794;BME280;26502;51.886;15.604;2023-09-19T04:01:08;99890.34;;;16.73;75.63
40794;BME280;26502;51.886;15.604;2023-09-19T04:06:15;99894.45;;;16.80;75.86
40794;BME280;26502;51.886;15.604;2023-09-19T04:11:21;99895.77;;;16.95;75.86
40794;BME280;26502;51.886;15.604;2023-09-19T04:16:27;99898.76;;;17.03;75.80
40794;BME280;26502;51.886;15.604;2023-09-19T04:21:34;99908.72;;;16.97;75.52
40794;BME280;26502;51.886;15.604;2023-09-19T04:26:40;99923.19;;;16.80;75.45
40794;BME280;26502;51.886;15.604;2023-09-19T04:31:46;99920.19;;;16.76;75.68
40794;BME280;26502;51.886;15.604;2023-09-19T04:36:52;99922.00;;;16.84;75.95
40794;BME280;26502;51.886;15.604;2023-09-19T04:41:58;99928.35;;;16.91;75.81
40794;BME280;26502;51.886;15.604;2023-09-19T04:47:05;99932.13;;;16.88;75.70
40794;BME280;26502;51.886;15.604;2023-09-19T04:52:11;99924.82;;;16.82;75.76
40794;BME280;26502;51.886;15.604;2023-09-19T04:57:18;99933.09;;;16.74;76.00
40794;BME280;26502;51.886;15.604;2023-09-19T05:02:24;99935.94;;;16.74;76.15
40794;BME280;26502;51.886;15.604;2023-09-19T05:07:30;99936.44;;;16.75;76.21
40794;BME280;26502;51.886;15.604;2023-09-19T05:12:36;99939.23;;;16.84;76.42
40794;BME280;26502;51.886;15.604;2023-09-19T05:17:42;99940.30;;;16.97;76.30
40794;BME280;26502;51.886;15.604;2023-09-19T05:22:48;99947.07;;;16.95;76.26
40794;BME280;26502;51.886;15.604;2023-09-19T05:27:55;99955.80;;;16.91;76.61
40794;BME280;26502;51.886;15.604;2023-09-19T05:33:02;99953.58;;;16.89;76.66
40794;BME280;26502;51.886;15.604;2023-09-19T05:38:09;99957.94;;;16.91;76.83
40794;BME280;26502;51.886;15.604;2023-09-19T05:43:16;99963.14;;;16.96;77.01
40794;BME280;26502;51.886;15.604;2023-09-19T05:48:23;99966.06;;;17.05;77.14
40794;BME280;26502;51.886;15.604;2023-09-19T05:53:29;99977.01;;;17.06;77.26
40794;BME280;26502;51.886;15.604;2023-09-19T05:58:35;99980.86;;;17.09;77.40
40794;BME280;26502;51.886;15.604;2023-09-19T06:03:41;99991.31;;;17.14;77.58
40794;BME280;26502;51.886;15.604;2023-09-19T06:08:47;100000.52;;;17.16;77.72
40794;BME280;26502;51.886;15.604;2023-09-19T06:13:55;100009.02;;;17.17;78.21
40794;BME280;26502;51.886;15.604;2023-09-19T06:19:01;100014.58;;;17.22;78.23
40794;BME280;26502;51.886;15.604;2023-09-19T06:24:07;100017.70;;;17.26;78.40
40794;BME280;26502;51.886;15.604;2023-09-19T06:29:13;100021.80;;;17.32;78.70
40794;BME280;26502;51.886;15.604;2023-09-19T06:34:20;100030.60;;;17.36;79.11
40794;BME280;26502;51.886;15.604;2023-09-19T06:39:26;100039.80;;;17.39;79.35
40794;BME280;26502;51.886;15.604;2023-09-19T06:44:31;100050.84;;;17.48;79.62
40794;BME280;26502;51.886;15.604;2023-09-19T06:49:37;100058.86;;;17.61;79.36
40794;BME280;26502;51.886;15.604;2023-09-19T06:54:43;100066.08;;;17.63;79.22
40794;BME280;26502;51.886;15.604;2023-09-19T06:59:49;100086.78;;;17.59;79.19
40794;BME280;26502;51.886;15.604;2023-09-19T07:04:55;100085.74;;;17.64;79.32
40794;BME280;26502;51.886;15.604;2023-09-19T07:10:01;100096.98;;;17.68;79.18
40794;BME280;26502;51.886;15.604;2023-09-19T07:15:08;100104.71;;;17.62;79.22
40794;BME280;26502;51.886;15.604;2023-09-19T07:20:14;100114.35;;;17.63;79.32
40794;BME280;26502;51.886;15.604;2023-09-19T07:25:20;100120.17;;;17.62;79.33
40794;BME280;26502;51.886;15.604;2023-09-19T07:30:26;100118.98;;;17.54;79.65
40794;BME280;26502;51.886;15.604;2023-09-19T07:35:32;100118.09;;;17.59;79.69
40794;BME280;26502;51.886;15.604;2023-09-19T07:40:39;100121.81;;;17.67;79.83
40794;BME280;26502;51.886;15.604;2023-09-19T07:45:45;100128.64;;;17.67;80.05
40794;BME280;26502;51.886;15.604;2023-09-19T07:50:51;100131.00;;;17.74;80.32
40794;BME280;26502;51.886;15.604;2023-09-19T07:56:04;100136.67;;;17.78;80.10
40794;BME280;26502;51.886;15.604;2023-09-19T08:01:11;100134.48;;;17.80;80.07
40794;BME280;26502;51.886;15.604;2023-09-19T08:06:18;100142.66;;;17.90;79.92
40794;BME280;26502;51.886;15.604;2023-09-19T08:11:25;100138.97;;;17.96;79.83
40794;BME280;26502;51.886;15.604;2023-09-19T08:16:31;100140.95;;;18.04;79.86
40794;BME280;26502;51.886;15.604;2023-09-19T08:21:37;100143.23;;;18.22;79.65
40794;BME280;26502;51.886;15.604;2023-09-19T08:26:43;100150.74;;;18.45;79.48
40794;BME280;26502;51.886;15.604;2023-09-19T08:31:49;100145.25;;;18.56;78.49
40794;BME280;26502;51.886;15.604;2023-09-19T08:36:56;100143.69;;;18.77;78.48
40794;BME280;26502;51.886;15.604;2023-09-19T08:42:02;100147.33;;;19.05;77.19
40794;BME280;26502;51.886;15.604;2023-09-19T08:47:10;100159.88;;;19.13;76.12
40794;BME280;26502;51.886;15.604;2023-09-19T08:52:22;100157.40;;;19.15;74.84
40794;BME280;26502;51.886;15.604;2023-09-19T08:57:30;100160.70;;;19.07;74.65
40794;BME280;26502;51.886;15.604;2023-09-19T09:02:40;100172.90;;;18.96;73.65
40794;BME280;26502;51.886;15.604;2023-09-19T09:07:46;100175.87;;;18.99;73.60
40794;BME280;26502;51.886;15.604;2023-09-19T09:12:54;100187.88;;;19.04;73.58
40794;BME280;26502;51.886;15.604;2023-09-19T09:18:00;100198.37;;;18.97;72.86
40794;BME280;26502;51.886;15.604;2023-09-19T09:23:06;100195.66;;;18.96;72.24
40794;BME280;26502;51.886;15.604;2023-09-19T09:28:12;100209.25;;;19.17;72.49
40794;BME280;26502;51.886;15.604;2023-09-19T09:33:25;100215.69;;;19.20;71.43
40794;BME280;26502;51.886;15.604;2023-09-19T09:38:47;100219.46;;;19.06;71.15
40794;BME280;26502;51.886;15.604;2023-09-19T09:43:54;100224.90;;;19.10;71.57
40794;BME280;26502;51.886;15.604;2023-09-19T09:49:02;100232.65;;;19.12;71.10
40794;BME280;26502;51.886;15.604;2023-09-19T09:54:23;100230.86;;;19.07;71.03
40794;BME280;26502;51.886;15.604;2023-09-19T09:59:52;100230.30;;;19.08;70.70
40794;BME280;26502;51.886;15.604;2023-09-19T10:05:03;100233.69;;;19.10;70.83
40794;BME280;26502;51.886;15.604;2023-09-19T10:10:31;100232.11;;;19.10;70.67
40794;BME280;26502;51.886;15.604;2023-09-19T10:16:00;100225.06;;;19.32;70.83
40794;BME280;26502;51.886;15.604;2023-09-19T10:21:12;100212.73;;;19.56;70.46
40794;BME280;26502;51.886;15.604;2023-09-19T10:26:19;100211.34;;;19.86;70.47
40794;BME280;26502;51.886;15.604;2023-09-19T10:31:29;100213.59;;;20.12;70.03
40794;BME280;26502;51.886;15.604;2023-09-19T10:36:39;100210.96;;;20.43;69.92
40794;BME280;26502;51.886;15.604;2023-09-19T10:41:53;100209.00;;;20.74;69.00
40794;BME280;26502;51.886;15.604;2023-09-19T10:46:59;100208.75;;;21.10;67.12
40794;BME280;26502;51.886;15.604;2023-09-19T10:52:07;100212.57;;;21.42;64.93
40794;BME280;26502;51.886;15.604;2023-09-19T10:57:20;100215.44;;;21.48;62.25
40794;BME280;26502;51.886;15.604;2023-09-19T11:02:29;100219.84;;;21.92;62.23
40794;BME280;26502;51.886;15.604;2023-09-19T11:07:58;100225.99;;;21.66;59.29
40794;BME280;26502;51.886;15.604;2023-09-19T11:13:27;100221.73;;;21.50;59.46
40794;BME280;26502;51.886;15.604;2023-09-19T11:18:55;100217.83;;;22.02;59.98
40794;BME280;26502;51.886;15.604;2023-09-19T11:24:29;100223.52;;;22.38;55.54
40794;BME280;26502;51.886;15.604;2023-09-19T11:29:40;100216.77;;;22.35;54.65
40794;BME280;26502;51.886;15.604;2023-09-19T11:34:47;100210.55;;;22.27;53.09
40794;BME280;26502;51.886;15.604;2023-09-19T11:40:08;100207.81;;;22.54;52.07
40794;BME280;26502;51.886;15.604;2023-09-19T11:51:01;100199.85;;;23.08;52.32
40794;BME280;26502;51.886;15.604;2023-09-19T11:56:20;100203.53;;;23.17;51.66
40794;BME280;26502;51.886;15.604;2023-09-19T12:01:31;100218.30;;;22.50;49.55
40794;BME280;26502;51.886;15.604;2023-09-19T12:06:40;100219.88;;;22.18;51.14
40794;BME280;26502;51.886;15.604;2023-09-19T12:11:48;100214.66;;;21.89;50.58
40794;BME280;26502;51.886;15.604;2023-09-19T12:16:56;100210.30;;;21.53;50.39
40794;BME280;26502;51.886;15.604;2023-09-19T12:22:05;100213.45;;;21.59;50.21
40794;BME280;26502;51.886;15.604;2023-09-19T12:27:14;100215.69;;;21.73;50.06
40794;BME280;26502;51.886;15.604;2023-09-19T12:32:35;100206.33;;;21.85;49.99
40794;BME280;26502;51.886;15.604;2023-09-19T12:37:45;100209.46;;;22.01;50.53
40794;BME280;26502;51.886;15.604;2023-09-19T12:42:54;100205.24;;;22.08;49.52
40794;BME280;26502;51.886;15.604;2023-09-19T12:53:27;100211.30;;;22.11;48.62
40794;BME280;26502;51.886;15.604;2023-09-19T12:58:34;100214.82;;;22.16;48.33
40794;BME280;26502;51.886;15.604;2023-09-19T13:03:45;100210.12;;;22.20;48.07
40794;BME280;26502;51.886;15.604;2023-09-19T13:09:09;100223.38;;;22.42;48.06
40794;BME280;26502;51.886;15.604;2023-09-19T13:14:17;100215.09;;;22.64;47.04
40794;BME280;26502;51.886;15.604;2023-09-19T13:19:40;100222.55;;;22.47;45.34
40794;BME280;26502;51.886;15.604;2023-09-19T13:24:48;100226.77;;;22.51;45.66
40794;BME280;26502;51.886;15.604;2023-09-19T13:29:55;100231.05;;;22.46;45.03
40794;BME280;26502;51.886;15.604;2023-09-19T13:35:02;100239.15;;;22.41;43.92
40794;BME280;26502;51.886;15.604;2023-09-19T13:40:12;100234.08;;;22.25;44.18
40794;BME280;26502;51.886;15.604;2023-09-19T13:45:18;100232.65;;;22.25;44.28
40794;BME280;26502;51.886;15.604;2023-09-19T13:50:26;100232.75;;;22.18;44.34
40794;BME280;26502;51.886;15.604;2023-09-19T13:55:33;100234.52;;;22.24;44.63
40794;BME280;26502;51.886;15.604;2023-09-19T14:00:39;100234.40;;;22.21;44.02
40794;BME280;26502;51.886;15.604;2023-09-19T14:05:45;100238.16;;;22.06;43.46
40794;BME280;26502;51.886;15.604;2023-09-19T14:10:52;100235.87;;;22.17;43.80
40794;BME280;26502;51.886;15.604;2023-09-19T14:16:02;100234.30;;;22.50;43.99
40794;BME280;26502;51.886;15.604;2023-09-19T14:21:08;100233.71;;;22.62;43.78
40794;BME280;26502;51.886;15.604;2023-09-19T14:26:16;100232.24;;;22.64;43.20
40794;BME280;26502;51.886;15.604;2023-09-19T14:31:24;100236.44;;;22.56;43.18
40794;BME280;26502;51.886;15.604;2023-09-19T14:36:31;100236.34;;;22.49;43.67
40794;BME280;26502;51.886;15.604;2023-09-19T14:41:37;100246.83;;;22.41;43.95
40794;BME280;26502;51.886;15.604;2023-09-19T14:46:44;100237.79;;;22.18;43.23
40794;BME280;26502;51.886;15.604;2023-09-19T14:51:51;100234.31;;;21.96;43.53
40794;BME280;26502;51.886;15.604;2023-09-19T14:56:57;100238.27;;;21.90;44.28
40794;BME280;26502;51.886;15.604;2023-09-19T15:02:10;100242.70;;;21.91;44.17
40794;BME280;26502;51.886;15.604;2023-09-19T15:07:17;100247.10;;;21.77;44.37
40794;BME280;26502;51.886;15.604;2023-09-19T15:12:25;100242.65;;;21.57;44.74
40794;BME280;26502;51.886;15.604;2023-09-19T15:17:32;100237.52;;;21.52;44.97
40794;BME280;26502;51.886;15.604;2023-09-19T15:22:38;100233.43;;;21.53;45.41
40794;BME280;26502;51.886;15.604;2023-09-19T15:27:44;100238.38;;;21.46;45.64
40794;BME280;26502;51.886;15.604;2023-09-19T15:32:50;100238.80;;;21.60;46.04
40794;BME280;26502;51.886;15.604;2023-09-19T15:37:56;100234.67;;;21.65;46.38
40794;BME280;26502;51.886;15.604;2023-09-19T15:43:03;100234.73;;;21.55;46.85
40794;BME280;26502;51.886;15.604;2023-09-19T15:48:09;100239.19;;;21.66;47.48
40794;BME280;26502;51.886;15.604;2023-09-19T15:53:16;100240.16;;;21.72;47.49
40794;BME280;26502;51.886;15.604;2023-09-19T15:58:22;100244.66;;;21.76;47.72
40794;BME280;26502;51.886;15.604;2023-09-19T16:03:29;100252.30;;;21.57;47.48
40794;BME280;26502;51.886;15.604;2023-09-19T16:08:35;100254.70;;;21.30;47.50
40794;BME280;26502;51.886;15.604;2023-09-19T16:13:44;100250.40;;;21.23;47.67
40794;BME280;26502;51.886;15.604;2023-09-19T16:18:52;100255.36;;;21.05;47.76
40794;BME280;26502;51.886;15.604;2023-09-19T16:24:01;100258.66;;;20.91;48.11
40794;BME280;26502;51.886;15.604;2023-09-19T16:29:07;100255.62;;;20.86;48.45
40794;BME280;26502;51.886;15.604;2023-09-19T16:34:14;100259.88;;;20.83;48.80
40794;BME280;26502;51.886;15.604;2023-09-19T16:39:20;100262.61;;;20.69;49.03
40794;BME280;26502;51.886;15.604;2023-09-19T16:44:26;100264.17;;;20.45;49.69
40794;BME280;26502;51.886;15.604;2023-09-19T16:49:33;100269.20;;;20.16;49.59
40794;BME280;26502;51.886;15.604;2023-09-19T16:54:39;100276.55;;;19.89;49.71
40794;BME280;26502;51.886;15.604;2023-09-19T16:59:45;100275.55;;;19.68;50.68
40794;BME280;26502;51.886;15.604;2023-09-19T17:04:51;100282.10;;;19.51;51.04
40794;BME280;26502;51.886;15.604;2023-09-19T17:09:58;100285.27;;;19.35;51.64
40794;BME280;26502;51.886;15.604;2023-09-19T17:15:08;100278.96;;;19.16;51.93
40794;BME280;26502;51.886;15.604;2023-09-19T17:20:15;100283.80;;;18.92;52.43
40794;BME280;26502;51.886;15.604;2023-09-19T17:25:22;100286.02;;;18.76;52.51
40794;BME280;26502;51.886;15.604;2023-09-19T17:30:29;100289.64;;;18.58;52.84
40794;BME280;26502;51.886;15.604;2023-09-19T17:35:35;100293.13;;;18.37;52.91
40794;BME280;26502;51.886;15.604;2023-09-19T17:40:42;100297.38;;;18.18;53.45
40794;BME280;26502;51.886;15.604;2023-09-19T17:45:50;100305.30;;;17.89;53.83
40794;BME280;26502;51.886;15.604;2023-09-19T17:51:01;100310.39;;;17.77;54.32
40794;BME280;26502;51.886;15.604;2023-09-19T17:56:09;100310.31;;;17.65;54.64
40794;BME280;26502;51.886;15.604;2023-09-19T18:01:16;100323.94;;;17.47;54.72
40794;BME280;26502;51.886;15.604;2023-09-19T18:06:27;100329.45;;;17.28;55.19
40794;BME280;26502;51.886;15.604;2023-09-19T18:11:36;100331.77;;;17.20;55.43
40794;BME280;26502;51.886;15.604;2023-09-19T18:16:46;100325.91;;;17.06;55.80
40794;BME280;26502;51.886;15.604;2023-09-19T18:21:55;100333.54;;;16.93;56.09
40794;BME280;26502;51.886;15.604;2023-09-19T18:27:07;100342.73;;;16.78;56.28
40794;BME280;26502;51.886;15.604;2023-09-19T18:32:13;100342.91;;;16.60;56.40
40794;BME280;26502;51.886;15.604;2023-09-19T18:37:19;100346.91;;;16.48;56.78
40794;BME280;26502;51.886;15.604;2023-09-19T18:42:27;100347.36;;;16.44;57.06
40794;BME280;26502;51.886;15.604;2023-09-19T18:47:33;100348.52;;;16.34;57.05
40794;BME280;26502;51.886;15.604;2023-09-19T18:52:40;100353.28;;;16.20;56.89
40794;BME280;26502;51.886;15.604;2023-09-19T18:57:47;100352.41;;;16.08;57.45
40794;BME280;26502;51.886;15.604;2023-09-19T19:02:53;100356.85;;;15.97;57.57
40794;BME280;26502;51.886;15.604;2023-09-19T19:08:01;100355.32;;;15.80;57.94
40794;BME280;26502;51.886;15.604;2023-09-19T19:13:11;100355.95;;;15.69;58.27
40794;BME280;26502;51.886;15.604;2023-09-19T19:18:19;100356.98;;;15.39;57.84
40794;BME280;26502;51.886;15.604;2023-09-19T19:23:40;100358.48;;;15.19;58.70
40794;BME280;26502;51.886;15.604;2023-09-19T19:28:54;100358.96;;;15.26;58.94
40794;BME280;26502;51.886;15.604;2023-09-19T19:34:04;100357.00;;;15.14;59.06
40794;BME280;26502;51.886;15.604;2023-09-19T19:39:12;100361.03;;;15.15;59.29
40794;BME280;26502;51.886;15.604;2023-09-19T19:44:20;100359.94;;;15.03;59.36
40794;BME280;26502;51.886;15.604;2023-09-19T19:49:26;100363.85;;;14.87;59.18
40794;BME280;26502;51.886;15.604;2023-09-19T19:54:33;100361.29;;;14.72;59.52
40794;BME280;26502;51.886;15.604;2023-09-19T19:59:40;100358.11;;;14.61;59.76
40794;BME280;26502;51.886;15.604;2023-09-19T20:04:48;100364.90;;;14.51;59.58
40794;BME280;26502;51.886;15.604;2023-09-19T20:09:56;100358.17;;;14.46;60.06
40794;BME280;26502;51.886;15.604;2023-09-19T20:15:06;100364.75;;;14.36;60.13
40794;BME280;26502;51.886;15.604;2023-09-19T20:20:15;100370.79;;;13.96;60.36
40794;BME280;26502;51.886;15.604;2023-09-19T20:25:23;100373.88;;;13.95;60.97
40794;BME280;26502;51.886;15.604;2023-09-19T20:30:32;100375.05;;;13.97;61.22
40794;BME280;26502;51.886;15.604;2023-09-19T20:35:38;100376.38;;;14.02;61.14
40794;BME280;26502;51.886;15.604;2023-09-19T20:40:45;100377.52;;;14.01;61.16
40794;BME280;26502;51.886;15.604;2023-09-19T20:45:51;100382.23;;;14.03;61.28
40794;BME280;26502;51.886;15.604;2023-09-19T20:51:05;100384.29;;;13.97;61.41
40794;BME280;26502;51.886;15.604;2023-09-19T20:56:14;100383.86;;;13.60;61.15
40794;BME280;26502;51.886;15.604;2023-09-19T21:01:23;100388.13;;;13.22;61.47
40794;BME280;26502;51.886;15.604;2023-09-19T21:06:30;100384.75;;;13.23;62.07
40794;BME280;26502;51.886;15.604;2023-09-19T21:11:36;100379.27;;;13.29;62.21
40794;BME280;26502;51.886;15.604;2023-09-19T21:16:44;100379.10;;;13.36;62.22
40794;BME280;26502;51.886;15.604;2023-09-19T21:21:50;100381.48;;;13.43;62.37
40794;BME280;26502;51.886;15.604;2023-09-19T21:26:58;100389.23;;;13.37;62.32
40794;BME280;26502;51.886;15.604;2023-09-19T21:32:06;100389.79;;;13.37;62.53
40794;BME280;26502;51.886;15.604;2023-09-19T21:37:12;100391.84;;;13.35;62.57
40794;BME280;26502;51.886;15.604;2023-09-19T21:42:19;100387.02;;;13.27;62.76
40794;BME280;26502;51.886;15.604;2023-09-19T21:47:25;100388.23;;;13.24;62.75
40794;BME280;26502;51.886;15.604;2023-09-19T21:52:31;100388.66;;;13.26;62.76
40794;BME280;26502;51.886;15.604;2023-09-19T21:57:38;100381.49;;;13.24;62.72
40794;BME280;26502;51.886;15.604;2023-09-19T22:02:44;100387.13;;;13.03;62.63
40794;BME280;26502;51.886;15.604;2023-09-19T22:07:50;100385.83;;;12.65;63.10
40794;BME280;26502;51.886;15.604;2023-09-19T22:12:56;100388.80;;;12.74;63.53
40794;BME280;26502;51.886;15.604;2023-09-19T22:18:04;100388.23;;;12.67;63.42
40794;BME280;26502;51.886;15.604;2023-09-19T22:23:10;100387.98;;;12.57;63.58
40794;BME280;26502;51.886;15.604;2023-09-19T22:28:17;100387.90;;;12.43;63.71
40794;BME280;26502;51.886;15.604;2023-09-19T22:33:22;100386.21;;;12.48;64.04
40794;BME280;26502;51.886;15.604;2023-09-19T22:38:29;100393.16;;;12.60;64.10
40794;BME280;26502;51.886;15.604;2023-09-19T22:43:35;100394.12;;;12.63;63.91
40794;BME280;26502;51.886;15.604;2023-09-19T22:48:46;100388.73;;;12.56;64.07
40794;BME280;26502;51.886;15.604;2023-09-19T22:53:52;100390.44;;;12.50;64.28
40794;BME280;26502;51.886;15.604;2023-09-19T22:59:02;100389.05;;;12.53;64.34
40794;BME280;26502;51.886;15.604;2023-09-19T23:04:09;100390.04;;;12.47;64.08
40794;BME280;26502;51.886;15.604;2023-09-19T23:09:23;100389.92;;;12.25;64.08
40794;BME280;26502;51.886;15.604;2023-09-19T23:14:32;100392.48;;;12.15;64.34
40794;BME280;26502;51.886;15.604;2023-09-19T23:19:39;100393.65;;;12.25;64.56
40794;BME280;26502;51.886;15.604;2023-09-19T23:24:45;100392.89;;;12.31;64.55
40794;BME280;26502;51.886;15.604;2023-09-19T23:29:54;100393.68;;;12.28;64.38
40794;BME280;26502;51.886;15.604;2023-09-19T23:35:00;100395.27;;;12.25;64.51
40794;BME280;26502;51.886;15.604;2023-09-19T23:40:09;100395.35;;;12.23;64.60
40794;BME280;26502;51.886;15.604;2023-09-19T23:45:15;100393.80;;;12.10;64.37
40794;BME280;26502;51.886;15.604;2023-09-19T23:50:24;100401.92;;;11.98;64.63
40794;BME280;26502;51.886;15.604;2023-09-19T23:55:33;100408.96;;;11.97;64.66
